Airfield :
LOGIN :

Register | Disclaimer

   EN    FR    IT 

 










Legend :    VFR   Marginal VFR   IFR   Intensive IFR   Very Intensive IFR
Visi :
Ceiling :
>= 8 km
>= 3000ft
5 to 8 km
1000 to 3000 ft
1500m to 5 km
500 to 1000 ft
800 to 1500m
200 to 500 ft
< 800m
< 200 ft
Symbols :   Thunderstorms  Fog  Heavy snow  Heavy precipitations  Wind > 20 kt
SIGMETs :     Misc.  Thunderstorms  Icing  Turbulence  Mountain Waves  Volcanic Ashes







- Airport Elevation : 265 ft


ETSH - Holzdorf AB

CURRENT METAR :
  • 201820Z 11004KT 9999 FEW060 SCT170 BKN280 26/15 Q1011 BLU+

EXPIRED METARs :
  • 201720Z 14002KT 9999 FEW070 BKN160 BKN250 29/15 Q1011 BLU
  • 201620Z 19003KT 9999 FEW070 BKN160 BKN240 29/14 Q1011 BLU

Expired Forecast.
No reported NOTAMs for that airfield.
2 SIGMETs reported for the Bremen FIR (EDWW) :
 
Embedded thunderstorms
EDWW SIGMET T09 VALID 201732/201901 EDZF
EDWW BREMEN FIR EMBD TS OBS WI N5120 E00919 - N5120 E00846 - N5208 E00860 - N5208 E00828 - N5350 E00951 - N5305 E01025 - N5153 E00949 - N5120 E00919 TOP FL380 NC FCST AT 1901Z WI N5356 E01058 - N5251 E01111 - N5127 E01006 - N5102 E00816 - N5351 E00958 - N5356 E01058=
Squall lined thunderstorms and hail
EDWW SIGMET T08 VALID 201710/201900 EDZF
EDWW BREMEN FIR SQL TSGR OBS WI N5150 E01140 - N5151 E01136 - N5120 E01023 - N5120 E00924 - N5243 E01050 - N5436 E01056 - N5420 E01225 - N5307 E01237 - N5150 E01140 TOP FL400 NC FCST AT 1900Z WI N5223 E01120 - N5417 E01152 - N5452 E01301 - N5327 E01310 - N5131 E01227 - N5052 E01101 - N5051 E00945 - N5223 E01120=



MET'MAP, your aeronautical weather chart ! - Copyright ORBIFLY December 2007 - Disclaimer

ORBIFLY MET'MAP TEAM :

Programming & Development : Alexandra Zaïnal
Concept & Development : Baudouin d'Aumeries
Co-Development & Prog : Marc-Olivier Méhu
Technical & hardware support : Manuel Goepfert

Contact : metmap@orbifly.com




SOURCES & CREDITS :

   NOAA